Time;durP1;ratioP1;P1;durP2;ratioP2;P2;SDS_P1;SDS_P2;PMS_P1;PMS_P2;Temp;Humidity;BMP_temperature;BMP_pressure;BME280_temperature;BME280_humidity;BME280_pressure;Samples;Min_cycle;Max_cycle;Signal;HPM_P1;HPM_P2
2021/09/25 00:02:15;;;;;;;15.50;11.73;;;18.10;99.90;;;;;;5058451;28;20786;-72
2021/09/25 00:04:41;;;;;;;14.70;12.70;;;18.10;99.90;;;;;;5057824;28;20839;-72
2021/09/25 00:07:08;;;;;;;16.37;12.73;;;18.10;99.90;;;;;;5057603;28;20455;-72
2021/09/25 00:09:35;;;;;;;15.63;13.27;;;18.10;99.90;;;;;;5057589;28;20447;-72
2021/09/25 00:12:02;;;;;;;14.60;12.97;;;18.10;99.90;;;;;;5057697;28;20466;-72
2021/09/25 00:14:30;;;;;;;14.30;11.90;;;18.10;99.90;;;;;;5057688;28;20486;-72
2021/09/25 00:16:56;;;;;;;14.40;12.53;;;18.10;99.90;;;;;;5056791;28;20553;-72
2021/09/25 00:19:24;;;;;;;16.97;13.20;;;18.10;99.90;;;;;;5057034;28;20440;-73
2021/09/25 00:21:51;;;;;;;14.37;12.70;;;18.10;99.90;;;;;;5056943;28;20932;-72
2021/09/25 00:24:17;;;;;;;15.20;12.40;;;18.10;99.90;;;;;;5057410;28;20615;-72
2021/09/25 00:26:44;;;;;;;15.93;12.20;;;18.10;99.90;;;;;;5057360;28;20456;-72
2021/09/25 00:29:10;;;;;;;17.60;12.50;;;18.10;99.90;;;;;;5057237;28;20463;-72
2021/09/25 00:31:39;;;;;;;14.63;12.37;;;18.20;99.90;;;;;;5057018;28;20523;-72
2021/09/25 00:34:05;;;;;;;14.70;13.10;;;18.10;99.90;;;;;;5056816;28;20472;-72
2021/09/25 00:36:32;;;;;;;14.60;12.27;;;18.10;99.90;;;;;;5057068;28;20490;-72
2021/09/25 00:38:59;;;;;;;18.97;13.53;;;18.10;99.90;;;;;;5057246;28;20743;-72
2021/09/25 00:41:26;;;;;;;14.53;12.10;;;18.10;99.90;;;;;;5056993;28;20459;-72
2021/09/25 00:43:53;;;;;;;17.37;12.60;;;18.10;99.90;;;;;;5056549;28;20459;-72
2021/09/25 00:46:21;;;;;;;18.63;13.93;;;18.10;99.90;;;;;;5055860;28;20554;-72
2021/09/25 00:48:50;;;;;;;16.30;13.73;;;18.10;99.90;;;;;;5057040;28;20451;-72
2021/09/25 00:51:17;;;;;;;17.70;13.10;;;18.10;99.90;;;;;;5056771;28;20460;-72
2021/09/25 00:53:45;;;;;;;16.17;14.00;;;18.10;99.90;;;;;;5056991;28;20467;-73
2021/09/25 00:56:12;;;;;;;18.87;13.33;;;18.20;99.90;;;;;;5057218;28;20456;-73
2021/09/25 00:58:40;;;;;;;15.40;12.57;;;18.10;99.90;;;;;;5056225;28;20855;-73
2021/09/25 01:01:07;;;;;;;14.57;12.70;;;18.20;99.90;;;;;;5056661;28;20463;-72
2021/09/25 01:03:34;;;;;;;18.20;13.70;;;18.10;99.90;;;;;;5057120;28;20463;-72
2021/09/25 01:06:02;;;;;;;17.90;13.23;;;18.20;99.90;;;;;;5056570;28;20958;-72
2021/09/25 01:08:28;;;;;;;17.00;13.47;;;18.20;99.90;;;;;;5056621;28;20456;-72
2021/09/25 01:10:56;;;;;;;15.37;13.17;;;18.20;99.90;;;;;;5057069;28;20456;-72
2021/09/25 01:13:24;;;;;;;15.87;13.00;;;18.20;99.90;;;;;;5056263;28;20946;-72
2021/09/25 01:15:54;;;;;;;12.60;11.30;;;18.20;99.90;;;;;;5055843;28;20495;-73
2021/09/25 01:18:21;;;;;;;14.23;11.13;;;18.20;99.90;;;;;;5056197;28;20853;-73
2021/09/25 01:20:51;;;;;;;16.30;11.43;;;18.20;99.90;;;;;;5056313;28;20459;-72
2021/09/25 01:23:19;;;;;;;17.00;12.67;;;18.20;99.90;;;;;;5056814;28;20467;-72
2021/09/25 01:25:45;;;;;;;12.87;11.50;;;18.20;99.90;;;;;;5056210;28;20455;-72
2021/09/25 01:28:12;;;;;;;13.97;12.47;;;18.20;99.90;;;;;;5055792;28;20937;-71
2021/09/25 01:30:39;;;;;;;13.90;11.93;;;18.20;99.90;;;;;;5056633;28;20471;-71
2021/09/25 01:33:06;;;;;;;16.87;12.57;;;18.10;99.90;;;;;;5055675;28;20493;-72
2021/09/25 01:35:32;;;;;;;15.07;11.53;;;18.10;99.90;;;;;;5055872;28;20470;-72
2021/09/25 01:37:59;;;;;;;13.53;12.13;;;18.10;99.90;;;;;;5055669;28;20506;-72
2021/09/25 01:40:27;;;;;;;15.70;12.17;;;18.10;99.90;;;;;;5055754;28;20483;-72
2021/09/25 01:42:54;;;;;;;15.47;12.33;;;18.10;99.90;;;;;;5055728;28;20462;-72
2021/09/25 01:45:21;;;;;;;14.90;11.90;;;18.10;99.90;;;;;;5055847;28;20459;-72
2021/09/25 01:47:48;;;;;;;17.40;12.10;;;18.10;99.90;;;;;;5055281;28;20494;-72
2021/09/25 01:50:16;;;;;;;13.13;11.73;;;18.10;99.90;;;;;;5055655;28;20455;-72
2021/09/25 01:52:43;;;;;;;14.17;11.70;;;18.10;99.90;;;;;;5055442;28;20459;-72
2021/09/25 01:55:11;;;;;;;14.57;13.17;;;18.10;99.90;;;;;;5055196;28;20827;-72
2021/09/25 01:57:39;;;;;;;14.10;11.73;;;18.20;99.90;;;;;;5055017;28;20482;-72
2021/09/25 02:00:08;;;;;;;13.07;11.77;;;18.20;99.90;;;;;;5055656;28;20459;-72
2021/09/25 02:02:36;;;;;;;15.60;12.10;;;18.10;99.90;;;;;;5055341;28;20468;-72
2021/09/25 02:05:03;;;;;;;16.50;12.70;;;18.20;99.90;;;;;;5055400;28;20463;-73
2021/09/25 02:07:30;;;;;;;17.20;11.93;;;18.20;99.90;;;;;;5055536;28;20461;-72
2021/09/25 02:09:57;;;;;;;15.93;12.50;;;18.10;99.90;;;;;;5054963;28;20464;-72
2021/09/25 02:12:24;;;;;;;12.73;11.30;;;18.10;99.90;;;;;;5055131;28;20773;-72
2021/09/25 02:14:52;;;;;;;13.97;12.17;;;18.10;99.90;;;;;;5054947;28;20467;-72
2021/09/25 02:17:21;;;;;;;18.13;12.90;;;18.10;99.90;;;;;;5054906;28;20479;-72
2021/09/25 02:19:50;;;;;;;16.70;12.00;;;18.10;99.90;;;;;;5054450;28;20539;-72
2021/09/25 02:22:18;;;;;;;13.93;12.17;;;18.10;99.90;;;;;;5054841;28;20478;-72
2021/09/25 02:24:45;;;;;;;23.93;13.53;;;18.10;99.90;;;;;;5055103;28;20468;-72
2021/09/25 02:27:11;;;;;;;16.13;12.43;;;18.20;99.90;;;;;;5055199;28;20464;-72
2021/09/25 02:29:39;;;;;;;14.47;12.97;;;18.10;99.90;;;;;;5054683;28;20464;-73
2021/09/25 02:32:08;;;;;;;15.63;12.60;;;18.20;99.90;;;;;;5054811;28;20467;-72
2021/09/25 02:34:35;;;;;;;14.03;12.63;;;18.10;99.90;;;;;;5055155;28;20530;-72
2021/09/25 02:37:02;;;;;;;17.23;12.37;;;18.20;99.90;;;;;;5055112;28;20463;-72
2021/09/25 02:39:30;;;;;;;18.70;14.03;;;18.20;99.90;;;;;;5054818;28;20460;-71
2021/09/25 02:41:56;;;;;;;15.20;12.80;;;18.10;99.90;;;;;;5054933;28;20471;-72
2021/09/25 02:44:23;;;;;;;18.27;13.80;;;18.10;99.90;;;;;;5054932;28;20455;-72
2021/09/25 02:46:50;;;;;;;17.00;13.90;;;18.10;99.90;;;;;;5054998;28;20920;-72
2021/09/25 02:49:24;;;;;;;19.97;13.60;;;18.10;99.90;;;;;;5056864;28;20464;-72
2021/09/25 02:51:51;;;;;;;15.83;13.73;;;18.10;99.90;;;;;;5063245;28;20444;-72
2021/09/25 02:54:18;;;;;;;15.20;13.60;;;18.10;99.90;;;;;;5056499;28;20455;-71
2021/09/25 02:56:44;;;;;;;16.03;13.40;;;18.10;99.90;;;;;;5054754;28;20474;-72
2021/09/25 02:59:11;;;;;;;16.37;13.90;;;18.10;99.90;;;;;;5054810;28;20674;-71
2021/09/25 03:01:38;;;;;;;17.17;13.33;;;18.10;99.90;;;;;;5054843;28;20868;-72
2021/09/25 03:04:05;;;;;;;15.97;12.33;;;18.10;99.90;;;;;;5054681;28;20462;-71
2021/09/25 03:06:33;;;;;;;14.27;12.77;;;18.10;99.90;;;;;;5054751;28;20459;-72
2021/09/25 03:08:59;;;;;;;17.60;11.60;;;18.00;99.90;;;;;;5057423;28;20456;-72
2021/09/25 03:11:26;;;;;;;15.27;13.60;;;18.00;99.90;;;;;;5058739;28;20769;-72
2021/09/25 03:13:53;;;;;;;15.03;13.27;;;18.00;99.90;;;;;;5058456;28;20466;-72
2021/09/25 03:16:19;;;;;;;16.30;12.60;;;18.00;99.90;;;;;;5058506;28;20479;-72
2021/09/25 03:18:46;;;;;;;14.43;12.93;;;18.00;99.90;;;;;;5058746;28;20494;-71
2021/09/25 03:21:13;;;;;;;17.23;13.13;;;18.00;99.90;;;;;;5057823;28;20459;-71
2021/09/25 03:23:41;;;;;;;16.83;13.80;;;18.00;99.90;;;;;;5058896;28;20463;-71
2021/09/25 03:26:07;;;;;;;14.63;11.87;;;18.00;99.90;;;;;;5058283;28;20463;-71
2021/09/25 03:28:34;;;;;;;14.30;12.80;;;18.00;99.90;;;;;;5058186;28;20455;-71
2021/09/25 03:31:01;;;;;;;22.90;13.77;;;18.10;99.90;;;;;;5058140;28;20220;-72
2021/09/25 03:33:27;;;;;;;15.60;12.90;;;18.10;99.90;;;;;;5058175;28;20786;-72
2021/09/25 03:35:54;;;;;;;14.80;13.30;;;18.10;99.90;;;;;;5057923;28;20457;-72
2021/09/25 03:38:25;;;;;;;14.67;12.70;;;18.10;99.90;;;;;;5058187;28;20464;-72
2021/09/25 03:40:54;;;;;;;17.80;12.33;;;18.10;99.90;;;;;;5058116;28;20791;-72
2021/09/25 03:43:21;;;;;;;14.87;12.17;;;18.10;99.90;;;;;;5058019;28;20806;-72
2021/09/25 03:45:48;;;;;;;17.03;12.73;;;18.00;99.90;;;;;;5057802;28;20459;-71
2021/09/25 03:48:15;;;;;;;14.00;11.70;;;18.00;99.90;;;;;;5058147;28;20475;-71
2021/09/25 03:50:42;;;;;;;13.73;12.33;;;18.00;99.90;;;;;;5057416;28;20463;-72
2021/09/25 03:53:09;;;;;;;14.50;12.07;;;18.00;99.90;;;;;;5058108;28;20471;-71
2021/09/25 03:55:38;;;;;;;14.90;12.50;;;18.00;99.90;;;;;;5057894;28;20486;-71
2021/09/25 03:58:06;;;;;;;14.00;11.47;;;18.00;99.90;;;;;;5057616;28;20487;-71
2021/09/25 04:00:32;;;;;;;12.97;11.57;;;18.00;99.90;;;;;;5057465;28;20470;-70
2021/09/25 04:02:59;;;;;;;12.37;10.97;;;17.90;99.90;;;;;;5057817;28;20456;-70
2021/09/25 04:05:26;;;;;;;14.40;12.07;;;17.90;99.90;;;;;;5058191;28;20478;-72
2021/09/25 04:07:53;;;;;;;15.03;11.93;;;17.90;99.90;;;;;;5057724;28;20447;-74
2021/09/25 04:10:19;;;;;;;14.90;12.43;;;17.80;99.90;;;;;;5057701;28;20467;-73
2021/09/25 04:12:46;;;;;;;17.03;12.63;;;17.70;99.90;;;;;;5057460;28;20827;-74
2021/09/25 04:15:14;;;;;;;13.30;11.90;;;17.70;99.90;;;;;;5057427;28;20483;-71
2021/09/25 04:17:41;;;;;;;16.70;12.93;;;17.60;99.90;;;;;;5057347;28;20490;-72
2021/09/25 04:20:09;;;;;;;18.70;13.67;;;17.40;99.90;;;;;;5056626;28;20959;-73
2021/09/25 04:22:36;;;;;;;18.87;14.00;;;17.30;99.90;;;;;;5056907;28;20548;-71
2021/09/25 04:25:03;;;;;;;21.63;14.23;;;17.10;99.90;;;;;;5057009;28;20925;-71
2021/09/25 04:27:30;;;;;;;19.57;14.97;;;17.00;99.90;;;;;;5057095;28;20554;-71
2021/09/25 04:29:58;;;;;;;21.40;15.00;;;16.90;99.90;;;;;;5057201;28;20554;-71
2021/09/25 04:32:27;;;;;;;19.17;14.63;;;16.80;99.90;;;;;;5057379;28;20470;-71
2021/09/25 04:34:53;;;;;;;17.27;15.47;;;16.70;99.90;;;;;;5056869;28;20463;-70
2021/09/25 04:37:20;;;;;;;22.80;15.10;;;16.60;99.90;;;;;;5057154;28;20517;-71
2021/09/25 04:39:47;;;;;;;20.70;16.03;;;16.60;99.90;;;;;;5056721;28;20497;-72
2021/09/25 04:42:14;;;;;;;23.00;16.77;;;16.60;99.90;;;;;;5056883;28;20455;-71
2021/09/25 04:44:41;;;;;;;22.60;14.53;;;16.60;99.90;;;;;;5057756;28;20554;-71
2021/09/25 04:47:08;;;;;;;19.37;14.80;;;16.60;99.90;;;;;;5056255;28;20465;-71
2021/09/25 04:49:36;;;;;;;17.43;15.43;;;16.60;99.90;;;;;;5056708;28;20920;-73
2021/09/25 04:52:03;;;;;;;18.50;15.87;;;16.60;99.90;;;;;;5056714;28;20455;-70
2021/09/25 04:54:29;;;;;;;22.03;16.73;;;16.60;99.90;;;;;;5056716;28;20462;-71
2021/09/25 04:56:56;;;;;;;18.80;15.80;;;16.60;99.90;;;;;;5056523;28;20463;-71
2021/09/25 04:59:23;;;;;;;19.73;16.23;;;16.60;99.90;;;;;;5056973;28;20479;-70
2021/09/25 05:01:49;;;;;;;25.20;17.40;;;16.60;99.90;;;;;;5056862;28;20471;-71
2021/09/25 05:04:17;;;;;;;22.63;19.00;;;16.60;99.90;;;;;;5056528;28;20521;-71
2021/09/25 05:06:45;;;;;;;24.27;18.73;;;16.60;99.90;;;;;;5056750;28;20521;-72
2021/09/25 05:09:12;;;;;;;25.47;19.87;;;16.60;99.90;;;;;;5056771;28;20459;-72
2021/09/25 05:11:38;;;;;;;29.77;23.37;;;16.60;99.90;;;;;;5056171;28;20463;-73
2021/09/25 05:14:05;;;;;;;26.27;20.10;;;16.60;99.90;;;;;;5056239;28;20460;-70
2021/09/25 05:16:32;;;;;;;29.33;21.50;;;16.60;99.90;;;;;;5056187;28;20854;-71
2021/09/25 05:18:59;;;;;;;25.07;20.77;;;16.60;99.90;;;;;;5056612;28;20491;-71
2021/09/25 05:21:25;;;;;;;28.43;21.07;;;16.60;99.90;;;;;;5057063;28;20459;-71
2021/09/25 05:23:54;;;;;;;29.97;21.47;;;16.60;99.90;;;;;;5056469;28;20923;-71
2021/09/25 05:26:20;;;;;;;28.87;23.00;;;16.60;99.90;;;;;;5056473;28;20539;-72
2021/09/25 05:28:47;;;;;;;29.20;22.37;;;16.70;99.90;;;;;;5056351;28;20452;-75
2021/09/25 05:31:14;;;;;;;25.90;20.70;;;16.70;99.90;;;;;;5055452;28;20456;-71
2021/09/25 05:33:41;;;;;;;28.20;21.63;;;16.70;99.90;;;;;;5055987;28;20859;-72
2021/09/25 05:36:08;;;;;;;22.10;19.10;;;16.80;99.90;;;;;;5056121;28;20466;-72
2021/09/25 05:38:35;;;;;;;17.23;15.10;;;16.90;99.90;;;;;;5055918;28;20482;-72
2021/09/25 05:41:03;;;;;;;17.57;13.60;;;16.90;99.90;;;;;;5056073;28;20466;-72
2021/09/25 05:43:29;;;;;;;17.73;13.90;;;16.90;99.90;;;;;;5055687;28;20459;-72
2021/09/25 05:45:56;;;;;;;18.50;14.00;;;17.00;99.90;;;;;;5056211;28;20463;-72
2021/09/25 05:48:23;;;;;;;15.87;14.10;;;17.00;99.90;;;;;;5055938;28;20455;-72
2021/09/25 05:50:50;;;;;;;14.87;12.47;;;17.00;99.90;;;;;;5055892;28;20854;-71
2021/09/25 05:53:17;;;;;;;18.17;13.07;;;17.00;99.90;;;;;;5055975;28;20492;-72
2021/09/25 05:55:43;;;;;;;18.03;13.37;;;17.00;99.90;;;;;;5056141;28;20916;-72
2021/09/25 05:58:11;;;;;;;14.37;12.17;;;17.00;99.90;;;;;;5056142;28;20483;-73
2021/09/25 06:00:38;;;;;;;15.37;12.20;;;17.00;99.90;;;;;;5055664;28;20456;-72
2021/09/25 06:03:04;;;;;;;16.50;13.23;;;17.10;99.90;;;;;;5055982;28;20761;-72
2021/09/25 06:05:32;;;;;;;14.77;13.23;;;17.10;99.90;;;;;;5055678;28;20755;-72
2021/09/25 06:07:59;;;;;;;15.20;13.60;;;17.10;99.90;;;;;;5055162;28;20491;-72
2021/09/25 06:10:26;;;;;;;16.57;12.37;;;17.10;99.90;;;;;;5055410;28;20466;-72
2021/09/25 06:12:52;;;;;;;13.37;11.40;;;17.10;99.90;;;;;;5055268;28;20464;-71
2021/09/25 06:15:21;;;;;;;15.40;12.13;;;17.20;99.90;;;;;;5054875;28;20487;-72
2021/09/25 06:17:47;;;;;;;18.73;11.87;;;17.20;99.90;;;;;;5055373;28;20444;-73
2021/09/25 06:20:14;;;;;;;14.03;11.40;;;17.20;99.90;;;;;;5055432;28;20490;-73
2021/09/25 06:22:41;;;;;;;13.10;11.70;;;17.20;99.90;;;;;;5055232;28;20470;-71
2021/09/25 06:25:09;;;;;;;16.83;11.47;;;17.20;99.90;;;;;;5054918;28;20525;-72
2021/09/25 06:27:37;;;;;;;13.37;11.20;;;17.30;99.90;;;;;;5055199;28;20467;-72
2021/09/25 06:30:05;;;;;;;13.73;12.33;;;17.40;99.90;;;;;;5055574;28;20456;-72
2021/09/25 06:32:33;;;;;;;16.60;13.83;;;17.40;99.90;;;;;;5055256;28;20459;-73
2021/09/25 06:35:00;;;;;;;15.33;11.73;;;17.40;99.90;;;;;;5054876;28;20463;-72
2021/09/25 06:37:26;;;;;;;13.87;11.80;;;17.40;99.90;;;;;;5054561;28;20511;-72
2021/09/25 06:39:53;;;;;;;13.40;12.00;;;17.50;99.90;;;;;;5056005;28;20549;-72
2021/09/25 06:42:20;;;;;;;13.60;12.20;;;17.50;99.90;;;;;;5055983;28;20470;-72
2021/09/25 06:44:46;;;;;;;15.10;13.60;;;17.50;99.90;;;;;;5054920;28;20758;-72
2021/09/25 06:47:13;;;;;;;18.47;14.27;;;17.50;99.90;;;;;;5055012;28;20474;-72
2021/09/25 06:49:41;;;;;;;17.67;14.87;;;17.50;99.90;;;;;;5056255;28;20456;-73
2021/09/25 06:52:10;;;;;;;16.10;13.73;;;17.50;99.90;;;;;;5054435;28;20467;-72
2021/09/25 06:54:37;;;;;;;16.93;14.97;;;17.50;99.90;;;;;;5054939;28;20470;-72
2021/09/25 06:57:05;;;;;;;16.67;14.80;;;17.60;99.90;;;;;;5054830;28;20491;-71
2021/09/25 06:59:31;;;;;;;16.90;13.80;;;17.50;99.90;;;;;;5054504;28;20486;-70
2021/09/25 07:02:01;;;;;;;17.00;14.80;;;17.60;99.90;;;;;;5054619;28;20800;-73
2021/09/25 07:04:27;;;;;;;20.90;15.30;;;17.60;99.90;;;;;;5054517;28;20912;-71
2021/09/25 07:06:55;;;;;;;18.80;12.80;;;17.60;99.90;;;;;;5054596;28;20459;-71
2021/09/25 07:09:26;;;;;;;21.77;15.00;;;17.60;99.90;;;;;;5054320;28;20451;-71
2021/09/25 07:11:53;;;;;;;14.30;12.80;;;17.70;99.90;;;;;;5054623;28;20542;-71
2021/09/25 07:14:20;;;;;;;15.97;12.97;;;17.70;99.90;;;;;;5054048;28;20463;-71
2021/09/25 07:16:46;;;;;;;17.23;12.40;;;17.70;99.90;;;;;;5054009;28;20980;-72
2021/09/25 07:19:13;;;;;;;16.53;11.97;;;17.70;99.90;;;;;;5054637;28;20487;-73
2021/09/25 07:21:40;;;;;;;15.30;13.70;;;17.80;99.90;;;;;;5054205;28;20467;-73
2021/09/25 07:24:08;;;;;;;14.43;11.43;;;17.80;99.90;;;;;;5054446;28;20796;-72
2021/09/25 07:26:36;;;;;;;23.90;12.77;;;17.90;99.90;;;;;;5054294;28;20467;-73
2021/09/25 07:29:03;;;;;;;18.20;12.27;;;17.90;99.90;;;;;;5054219;28;20966;-72
2021/09/25 07:31:30;;;;;;;15.10;13.50;;;18.00;99.90;;;;;;5054229;28;20462;-72
2021/09/25 07:33:57;;;;;;;14.37;12.90;;;18.10;99.90;;;;;;5054612;28;20521;-72
2021/09/25 07:36:26;;;;;;;15.17;12.80;;;18.10;99.90;;;;;;5053987;28;20467;-72
2021/09/25 07:38:53;;;;;;;16.90;14.47;;;18.20;99.90;;;;;;5054443;28;20490;-73
2021/09/25 07:41:21;;;;;;;14.97;12.83;;;18.30;99.90;;;;;;5054516;28;20487;-73
2021/09/25 07:43:48;;;;;;;15.10;12.70;;;18.30;99.90;;;;;;5054228;28;20467;-72
2021/09/25 07:46:15;;;;;;;13.20;11.93;;;18.30;99.90;;;;;;5054811;28;20463;-72
2021/09/25 07:48:42;;;;;;;13.83;11.80;;;18.20;99.90;;;;;;5054372;28;20459;-73
2021/09/25 07:51:09;;;;;;;14.57;13.07;;;18.10;99.90;;;;;;5054545;28;20460;-73
2021/09/25 07:53:36;;;;;;;17.60;12.30;;;18.10;99.90;;;;;;5056531;28;20463;-73
2021/09/25 07:56:06;;;;;;;16.50;11.60;;;18.10;99.90;;;;;;5062401;28;20455;-71
2021/09/25 07:58:34;;;;;;;15.07;12.90;;;18.20;99.90;;;;;;5063050;28;20464;-71
2021/09/25 08:01:01;;;;;;;15.20;13.67;;;18.20;99.90;;;;;;5063284;28;20489;-73
2021/09/25 08:03:28;;;;;;;16.07;14.07;;;18.20;99.90;;;;;;5061967;28;20463;-72
2021/09/25 08:05:54;;;;;;;14.47;13.00;;;18.20;99.90;;;;;;5062390;28;20502;-73
2021/09/25 08:08:21;;;;;;;16.77;15.00;;;18.30;99.90;;;;;;5058446;28;20464;-73
2021/09/25 08:10:48;;;;;;;18.53;12.80;;;18.40;99.90;;;;;;5060168;28;20447;-73
2021/09/25 08:13:15;;;;;;;16.33;13.50;;;18.40;99.90;;;;;;5061878;28;20560;-73
2021/09/25 08:15:43;;;;;;;13.93;12.30;;;18.50;99.90;;;;;;5060729;28;20479;-73
2021/09/25 08:18:10;;;;;;;14.70;13.10;;;18.60;99.90;;;;;;5057548;28;20485;-72
2021/09/25 08:20:37;;;;;;;14.13;11.67;;;18.60;99.90;;;;;;5059786;28;20488;-73
2021/09/25 08:23:05;;;;;;;15.53;13.17;;;18.60;99.90;;;;;;5057550;28;20463;-72
2021/09/25 08:25:34;;;;;;;16.80;13.80;;;18.60;99.90;;;;;;5057378;28;20985;-73
2021/09/25 08:28:01;;;;;;;15.43;13.30;;;18.60;99.90;;;;;;5056843;28;20486;-71
2021/09/25 08:30:28;;;;;;;15.77;13.23;;;18.60;99.90;;;;;;5058031;28;20773;-72
2021/09/25 08:32:57;;;;;;;15.33;12.70;;;18.60;99.90;;;;;;5057278;28;20463;-71
2021/09/25 08:35:24;;;;;;;19.80;14.70;;;18.60;99.90;;;;;;5057673;28;20529;-72
2021/09/25 08:37:51;;;;;;;16.03;13.27;;;18.50;99.90;;;;;;5057315;28;20469;-73
2021/09/25 08:40:21;;;;;;;15.33;13.43;;;18.50;99.90;;;;;;5057348;28;20477;-73
2021/09/25 08:42:49;;;;;;;16.97;13.20;;;18.40;99.90;;;;;;5057370;28;20459;-73
2021/09/25 08:45:16;;;;;;;17.87;14.03;;;18.40;99.90;;;;;;5056898;28;20924;-74
2021/09/25 08:47:43;;;;;;;14.80;13.30;;;18.40;99.90;;;;;;5058213;28;20461;-73
2021/09/25 08:50:14;;;;;;;15.60;13.70;;;18.40;99.90;;;;;;5057296;28;20943;-73
2021/09/25 08:52:44;;;;;;;18.17;13.80;;;18.40;99.90;;;;;;5057884;28;20925;-72
2021/09/25 08:55:12;;;;;;;15.33;13.70;;;18.40;99.90;;;;;;5058813;28;20466;-73
2021/09/25 08:57:40;;;;;;;15.97;12.90;;;18.40;99.90;;;;;;5058538;28;20455;-72
2021/09/25 09:00:39;;;;;;;14.30;12.73;;;18.40;99.90;;;;;;5056847;28;20963;-74
2021/09/25 09:03:32;;;;;;;15.27;12.17;;;18.50;99.90;;;;;;5056534;28;20948;-73
2021/09/25 09:06:13;;;;;;;14.10;12.80;;;18.50;99.90;;;;;;5058506;28;20436;-74
2021/09/25 09:08:42;;;;;;;13.77;11.97;;;18.60;99.90;;;;;;5060537;28;20439;-73
2021/09/25 09:11:09;;;;;;;17.70;13.50;;;18.70;99.90;;;;;;5059975;28;20458;-72
2021/09/25 09:13:37;;;;;;;14.33;12.80;;;18.70;99.90;;;;;;5057984;28;20460;-72
2021/09/25 09:16:06;;;;;;;20.37;13.63;;;18.70;99.90;;;;;;5057105;28;20513;-72
2021/09/25 09:18:38;;;;;;;17.70;14.97;;;18.60;99.90;;;;;;5056600;28;20467;-74
2021/09/25 09:21:12;;;;;;;15.47;13.70;;;18.60;99.90;;;;;;5056162;28;20488;-72
2021/09/25 09:23:43;;;;;;;15.20;13.70;;;18.60;99.90;;;;;;5056410;28;20453;-72
2021/09/25 09:26:13;;;;;;;17.20;13.90;;;18.60;99.90;;;;;;5056609;28;20443;-72
2021/09/25 09:28:42;;;;;;;18.37;15.23;;;18.60;99.90;;;;;;5056369;28;20792;-72
2021/09/25 09:31:10;;;;;;;16.53;14.83;;;18.50;99.90;;;;;;5056229;28;20785;-72
2021/09/25 09:33:38;;;;;;;18.47;16.70;;;18.50;99.90;;;;;;5055887;28;20912;-72
2021/09/25 09:36:18;;;;;;;17.13;14.60;;;18.50;99.90;;;;;;5056435;28;20788;-72
2021/09/25 09:38:50;;;;;;;17.00;15.33;;;18.50;99.90;;;;;;5055661;28;20454;-72
2021/09/25 09:41:19;;;;;;;15.97;14.37;;;18.60;99.90;;;;;;5055897;28;20470;-72
2021/09/25 09:43:46;;;;;;;18.73;16.73;;;18.50;99.90;;;;;;5055886;28;20516;-72
2021/09/25 09:46:14;;;;;;;21.03;18.53;;;18.50;99.90;;;;;;5055525;28;20470;-73
2021/09/25 09:48:43;;;;;;;21.90;19.70;;;18.30;99.90;;;;;;5055138;28;20458;-73
2021/09/25 09:51:10;;;;;;;17.77;15.93;;;18.30;99.90;;;;;;5055610;28;20455;-72
2021/09/25 09:53:47;;;;;;;18.47;16.57;;;18.20;99.90;;;;;;5055195;28;20498;-72
2021/09/25 09:56:22;;;;;;;18.43;15.97;;;18.20;99.90;;;;;;5055835;28;20451;-73
2021/09/25 09:59:00;;;;;;;18.30;16.50;;;18.20;99.90;;;;;;5055517;28;20459;-73
2021/09/25 10:01:28;;;;;;;19.23;16.67;;;18.20;99.90;;;;;;5055848;28;20467;-73
2021/09/25 10:03:55;;;;;;;20.03;18.03;;;18.20;99.90;;;;;;5055536;28;20455;-73
2021/09/25 10:06:22;;;;;;;19.40;16.80;;;18.10;99.90;;;;;;5055611;28;20463;-73
2021/09/25 10:08:50;;;;;;;21.37;19.20;;;18.00;99.90;;;;;;5055540;28;20460;-73
2021/09/25 10:11:19;;;;;;;22.77;18.33;;;17.90;99.90;;;;;;5054822;28;20464;-73
2021/09/25 10:13:46;;;;;;;19.67;17.60;;;17.80;99.90;;;;;;5055083;28;20456;-72
2021/09/25 10:16:14;;;;;;;21.30;19.03;;;17.70;99.90;;;;;;5054663;28;20493;-73
2021/09/25 10:18:42;;;;;;;22.70;20.03;;;17.60;99.90;;;;;;5054492;28;20459;-72
2021/09/25 10:21:11;;;;;;;21.33;19.13;;;17.60;99.90;;;;;;5054820;28;20803;-73
2021/09/25 10:23:43;;;;;;;26.03;19.97;;;17.50;99.90;;;;;;5056452;28;20943;-73
2021/09/25 10:26:11;;;;;;;24.30;19.67;;;17.60;99.90;;;;;;5060333;28;20543;-73
2021/09/25 10:28:38;;;;;;;23.33;20.80;;;17.70;99.90;;;;;;5054835;28;20470;-72
2021/09/25 10:31:05;;;;;;;27.27;20.23;;;17.70;99.90;;;;;;5054955;28;20456;-72
2021/09/25 10:33:31;;;;;;;23.10;20.80;;;17.80;99.90;;;;;;5054631;28;20534;-72
2021/09/25 10:35:58;;;;;;;24.57;19.30;;;18.00;99.90;;;;;;5054391;28;20463;-72
2021/09/25 10:38:33;;;;;;;25.63;21.43;;;18.10;99.90;;;;;;5054573;28;20474;-72
2021/09/25 10:41:18;;;;;;;28.13;21.43;;;18.40;99.90;;;;;;5054684;28;20485;-73
2021/09/25 10:43:47;;;;;;;25.90;23.20;;;18.80;99.90;;;;;;5054631;28;20455;-72
2021/09/25 10:46:16;;;;;;;26.77;22.63;;;19.00;99.90;;;;;;5054255;28;20471;-72
2021/09/25 10:48:48;;;;;;;27.87;24.27;;;19.10;99.90;;;;;;5054699;28;20459;-72
2021/09/25 10:51:17;;;;;;;31.03;23.47;;;19.30;99.90;;;;;;5054681;28;20761;-72
2021/09/25 10:53:47;;;;;;;22.17;20.07;;;19.40;99.90;;;;;;5054578;28;20463;-72
2021/09/25 10:56:20;;;;;;;23.83;21.47;;;19.50;99.90;;;;;;5054248;28;20469;-72
2021/09/25 10:58:55;;;;;;;24.20;21.50;;;19.50;99.90;;;;;;5054483;28;20503;-72
2021/09/25 11:01:33;;;;;;;21.23;19.13;;;19.70;99.90;;;;;;5054353;28;20475;-73
2021/09/25 11:04:05;;;;;;;26.23;18.97;;;19.80;99.90;;;;;;5054191;28;20469;-72
2021/09/25 11:06:39;;;;;;;20.80;18.53;;;19.90;99.90;;;;;;5054069;28;20443;-72
2021/09/25 11:09:08;;;;;;;17.63;16.00;;;20.10;99.90;;;;;;5054573;28;20472;-72
2021/09/25 11:11:41;;;;;;;16.53;13.20;;;20.20;99.90;;;;;;5054601;28;20517;-72
2021/09/25 11:14:11;;;;;;;18.23;14.73;;;20.20;99.90;;;;;;5054907;28;20455;-72
2021/09/25 11:16:46;;;;;;;16.70;14.13;;;20.10;99.90;;;;;;5053848;28;20821;-73
2021/09/25 11:19:44;;;;;;;16.97;15.27;;;20.10;99.90;;;;;;5054181;28;20470;-72
2021/09/25 11:22:16;;;;;;;15.70;14.07;;;20.00;99.90;;;;;;5054432;28;20453;-73
2021/09/25 11:24:47;;;;;;;15.60;14.10;;;20.10;99.90;;;;;;5054264;28;20442;-73
2021/09/25 11:27:17;;;;;;;17.50;15.80;;;20.10;99.90;;;;;;5053948;28;20467;-72
2021/09/25 11:29:57;;;;;;;14.87;13.57;;;20.10;99.90;;;;;;5056486;28;20448;-72
2021/09/25 11:32:25;;;;;;;12.93;11.83;;;20.20;99.90;;;;;;5057841;28;20447;-72
2021/09/25 11:34:53;;;;;;;12.87;11.40;;;20.20;99.90;;;;;;5057986;28;20464;-71
2021/09/25 11:37:21;;;;;;;12.73;10.83;;;20.20;99.90;;;;;;5058217;28;20475;-71
2021/09/25 11:39:49;;;;;;;12.33;11.13;;;20.20;99.90;;;;;;5059123;28;20520;-73
2021/09/25 11:42:19;;;;;;;12.73;11.50;;;20.20;99.90;;;;;;5058615;28;20461;-71
2021/09/25 11:44:54;;;;;;;12.50;11.43;;;20.20;99.90;;;;;;5058991;28;20444;-73
2021/09/25 11:47:27;;;;;;;13.50;12.20;;;20.20;99.90;;;;;;5058626;28;20462;-72
2021/09/25 11:49:54;;;;;;;12.33;10.53;;;20.10;99.90;;;;;;5059411;28;20509;-72
2021/09/25 11:52:21;;;;;;;12.10;11.10;;;20.10;99.90;;;;;;5058657;28;20901;-72
2021/09/25 11:54:48;;;;;;;11.80;10.90;;;20.10;99.90;;;;;;5059822;28;20465;-72
2021/09/25 11:57:18;;;;;;;12.13;11.03;;;20.40;99.90;;;;;;5067510;28;20466;-72
2021/09/25 11:59:46;;;;;;;11.50;10.40;;;20.60;99.90;;;;;;5064901;28;20458;-72
2021/09/25 12:02:37;;;;;;;11.73;10.63;;;20.70;99.90;;;;;;5062800;28;20454;-72
2021/09/25 12:05:05;;;;;;;11.60;10.50;;;20.60;99.90;;;;;;5064812;28;20555;-71
2021/09/25 12:07:42;;;;;;;11.87;10.87;;;20.60;99.90;;;;;;5065009;28;20925;-72
2021/09/25 12:10:18;;;;;;;12.43;11.33;;;20.60;99.90;;;;;;5064130;28;20448;-72
2021/09/25 12:12:46;;;;;;;10.67;9.60;;;20.60;99.90;;;;;;5065021;28;20457;-71
2021/09/25 12:15:21;;;;;;;9.80;8.80;;;20.60;99.90;;;;;;5064469;28;20496;-71
2021/09/25 12:18:08;;;;;;;10.23;8.73;;;20.60;99.90;;;;;;5062348;28;20986;-71
2021/09/25 12:20:35;;;;;;;9.03;8.27;;;20.60;99.90;;;;;;5061062;28;21009;-71
2021/09/25 12:23:02;;;;;;;10.43;8.50;;;20.70;99.90;;;;;;5059101;28;20455;-71
2021/09/25 12:25:33;;;;;;;10.20;7.70;;;20.70;99.90;;;;;;5057222;28;20465;-71
2021/09/25 12:28:02;;;;;;;9.23;8.43;;;20.90;99.90;;;;;;5056999;28;20437;-71
2021/09/25 12:30:30;;;;;;;10.07;9.17;;;21.00;99.90;;;;;;5057091;28;20456;-71
2021/09/25 12:33:00;;;;;;;9.60;8.80;;;21.10;99.90;;;;;;5056878;28;20459;-71
2021/09/25 12:35:30;;;;;;;10.43;9.53;;;21.10;99.90;;;;;;5057259;28;20467;-71